Flight Track Log - Related Links

Times and Time Zones

All times are in EDT time to prevent confusion due to time zone crossing. See the AM214 flight status page for this flight to view local times or setup timezone preferences in your user account.

Time Position Orientation Groundspeed Altitude Reporting Facility
EDT Latitude Longitude Course Direction KTS MPH feet Rate Location/Type
Fri 07:45:28 PM -31.4842 152.7437 244° Southwest 20,000  Level Aus
Fri 07:47:35 PM -31.5139 152.6716 245° Southwest 171 197 6,400 -3,818 Descending Aus
Fri 07:48:35 PM -31.5343 152.6213 245° Southwest 168 193 8,100 1,500 Climbing Aus
Fri 07:49:35 PM -31.5526 152.5702 247° West 172 198 9,400 1,320 Climbing Aus
Fri 07:50:15 PM -31.5665 152.5351 245° Southwest 176 203 10,300 1,360 Climbing Aus
Fri 07:50:50 PM -31.5789 152.5037 245° Southwest 180 207 11,100 1,543 Climbing Aus
Fri 07:51:25 PM -31.5911 152.4731 245° Southwest 179 206 12,100 1,543 Climbing Aus
Fri 07:52:00 PM -31.6030 152.4410 246° West 181 208 12,900 1,440 Climbing Aus
Fri 07:52:40 PM -31.6175 152.4048 245° Southwest 182 209 13,900 1,553 Climbing Aus
Fri 07:53:25 PM -31.6332 152.3648 245° Southwest 178 205 15,100 1,440 Climbing Aus
Fri 07:54:20 PM -31.6533 152.3134 245° Southwest 188 216 16,300 1,255 Climbing Aus
Fri 07:55:15 PM -31.6738 152.2614 245° Southwest 190 219 17,400 667 Climbing Aus
Fri 07:55:50 PM -31.6942 152.2266 235° Southwest 227 261 17,300 -400 Descending Aus
Fri 07:56:15 PM -31.7160 152.2080 216° Southwest 234 269 17,000  Descending FlightAware
Fri 07:56:35 PM -31.7350 152.1912 216° Southwest 243 280 17,300  Climbing Aus
Fri 07:57:05 PM -31.7610 152.1670 218° Southwest 244 281 17,000 86 Descending FlightAware
Fri 07:57:45 PM -31.8027 152.1390 218° Southwest 250 288 17,400  Climbing Aus
Fri 07:57:46 PM -31.7970 152.1380 218° Southwest 251 289 17,000 -686 Descending FlightAware
Fri 07:58:20 PM -31.8260 152.1170 212° Southwest 251 289 17,000 1,579 Level FlightAware
Fri 07:59:05 PM -31.8720 152.1020 195° South 19,500 2,250 Climbing FlightAware
Fri 07:59:40 PM -31.9030 152.0860 204° Southwest 211 243 20,000 423 Climbing FlightAware
Fri 08:00:16 PM -31.9380 152.0670 205° Southwest 235 270 20,000  Level FlightAware
Fri 08:01:00 PM -31.9800 152.0370 211° Southwest 240 276 20,000 217 Level FlightAware
Fri 08:01:39 PM -32.0118 151.9994 211° Southwest 241 277 20,300  Climbing Aus
Fri 08:01:45 PM -32.0150 151.9940 211° Southwest 243 280 20,000 -391 Descending FlightAware
Fri 08:02:25 PM -32.0450 151.9540 228° Southwest 245 282 20,000 214 Level FlightAware
Fri 08:03:09 PM -32.0786 151.9089 228° Southwest 246 283 20,300  Climbing Aus
Fri 08:03:10 PM -32.0780 151.9090 228° Southwest 246 283 20,000 -439 Descending FlightAware
Fri 08:03:50 PM -32.1080 151.8680 229° Southwest 246 283 20,000  Level FlightAware
Fri 08:04:30 PM -32.1370 151.8290 229° Southwest 246 283 20,000  Level FlightAware
Fri 08:05:10 PM -32.1680 151.7870 229° Southwest 245 282 20,000  Level FlightAware
Fri 08:05:50 PM -32.1980 151.7460 229° Southwest 245 282 20,000  Level FlightAware
Fri 08:06:35 PM -32.2300 151.7020 229° Southwest 243 280 20,000 214 Level FlightAware
Fri 08:07:14 PM -32.2591 151.6618 229° Southwest 241 277 20,300  Climbing Aus
Fri 08:07:20 PM -32.2620 151.6580 229° Southwest 245 282 20,000  Descending FlightAware
Fri 08:07:59 PM -32.2924 151.6165 229° Southwest 240 276 20,300  Climbing Aus
Fri 08:08:00 PM -32.2940 151.6140 229° Southwest 247 284 20,000 -439 Descending FlightAware
Fri 08:08:40 PM -32.3230 151.5740 229° Southwest 247 284 20,000  Level FlightAware
Fri 08:09:25 PM -32.3570 151.5270 229° Southwest 246 283 20,000  Level FlightAware
Fri 08:10:00 PM -32.3830 151.4920 229° Southwest 247 284 20,000  Level FlightAware
Fri 08:10:45 PM -32.4160 151.4450 230° Southwest 246 283 20,000 217 Level FlightAware
Fri 08:11:23 PM -32.4445 151.4066 230° Southwest 239 275 20,300  Climbing Aus
Fri 08:11:33 PM -32.4490 151.4010 230° Southwest 245 282 20,000 -581 Descending FlightAware
Fri 08:11:54 PM -32.4670 151.3750 231° Southwest 244 281 20,000 300 Level FlightAware
Fri 08:12:33 PM -32.4961 151.3357 231° Southwest 238 274 20,300  Climbing Aus
Fri 08:12:34 PM -32.4950 151.3370 231° Southwest 238 274 20,000  Descending FlightAware
Fri 08:13:13 PM -32.5253 151.2949 231° Southwest 239 275 20,300  Climbing Aus
Fri 08:13:24 PM -32.5340 151.2840 231° Southwest 246 283 20,000 -439 Descending FlightAware
Fri 08:13:54 PM -32.5630 151.2630 211° Southwest 247 284 20,000  Level FlightAware
Fri 08:14:19 PM -32.5890 151.2560 193° South 247 284 20,000 305 Level FlightAware
Fri 08:14:53 PM -32.6294 151.2537 193° South 246 283 20,300  Climbing Aus
Fri 08:14:59 PM -32.6350 151.2530 193° South 246 283 20,000 -269 Descending FlightAware
Fri 08:16:00 PM -32.7060 151.2490 183° South 245 282 20,000  Level FlightAware
Fri 08:16:40 PM -32.7510 151.2470 183° South 245 282 20,000 419 Level FlightAware
Fri 08:16:43 PM -32.7541 151.2469 183° South 244 281 20,300 474 Climbing Aus
Fri 08:17:18 PM -32.7942 151.2451 183° South 246 283 20,300 -486 Level Aus
Fri 08:17:20 PM -32.7970 151.2440 183° South 246 283 20,000 -429 Descending FlightAware
Fri 08:18:00 PM -32.8420 151.2420 182° South 245 282 20,000  Level FlightAware
Fri 08:18:45 PM -32.8930 151.2390 183° South 245 282 20,000 -200 Level FlightAware
Fri 08:19:30 PM -32.9450 151.2360 183° South 245 282 19,700 -825 Descending FlightAware
Fri 08:20:05 PM -32.9860 151.2340 182° South 262 302 18,900 -1,161 Descending FlightAware
Fri 08:21:03 PM -33.0581 151.2298 182° South 274 315 17,900 -1,400 Descending Aus
Fri 08:21:05 PM -33.0620 151.2300 182° South 277 319 17,500 -1,588 Descending FlightAware
Fri 08:21:37 PM -33.1031 151.2280 182° South 277 319 17,000 -1,500 Descending Aus
Fri 08:21:45 PM -33.1130 151.2270 182° South 277 319 16,500 -1,811 Descending FlightAware
Fri 08:22:30 PM -33.1700 151.2240 183° South 274 315 15,400 -1,482 Descending FlightAware
Fri 08:23:10 PM -33.2210 151.2210 183° South 260 299 14,400 -1,412 Descending FlightAware
Fri 08:23:55 PM -33.2760 151.2180 183° South 256 295 13,400 -1,350 Descending FlightAware
Fri 08:24:30 PM -33.3190 151.2160 183° South 257 296 12,600 -973 Descending FlightAware
Fri 08:24:32 PM -33.3210 151.2159 183° South 264 304 12,800 -1,467 Climbing Aus
Fri 08:25:15 PM -33.3740 151.2130 183° South 259 298 11,500 -1,333 Descending FlightAware
Fri 08:25:17 PM -33.3767 151.2128 183° South 270 311 11,800 -811 Climbing Aus
Fri 08:25:52 PM -33.4184 151.2106 183° South 265 305 11,000 -1,814 Descending Aus
Fri 08:26:00 PM -33.4230 151.2100 183° South 260 299 10,500 -2,211 Descending FlightAware
Fri 08:26:30 PM -33.4640 151.2080 182° South 260 299 9,600 -1,636 Descending FlightAware
Fri 08:26:55 PM -33.4940 151.2060 183° South 258 297 9,000 -1,560 Descending FlightAware
Fri 08:27:20 PM -33.5240 151.2050 182° South 257 296 8,300 -1,418 Descending FlightAware
Fri 08:27:50 PM -33.5580 151.2030 183° South 246 283 7,700 -1,091 Descending FlightAware
Fri 08:28:26 PM -33.6019 151.2002 183° South 253 291 7,100 -1,500 Descending Aus
Fri 08:28:30 PM -33.6050 151.2000 183° South 244 281 6,700 -1,941 Descending FlightAware
Fri 08:29:00 PM -33.6410 151.1980 183° South 239 275 6,000 -1,500 Descending FlightAware
Fri 08:29:30 PM -33.6730 151.1960 183° South 226 260 5,200 -1,527 Descending FlightAware
Fri 08:29:55 PM -33.6970 151.1940 184° South 214 246 4,600 -1,529 Descending FlightAware
Fri 08:30:21 PM -33.7140 151.1720 227° Southwest 216 249 3,900 -1,556 Descending FlightAware
Fri 08:30:49 PM -33.7350 151.1520 218° Southwest 206 237 3,200 -1,286 Descending FlightAware
Fri 08:31:17 PM -33.7570 151.1440 218° Southwest 189 217 2,700 -375 Descending FlightAware
Fri 08:31:21 PM -33.7637 151.1429 218° Southwest 192 221 3,000  Climbing Aus
Fri 08:31:36 PM -33.7740 151.1430 183° South 172 198 2,700 -439 Descending FlightAware
Fri 08:32:02 PM -33.7960 151.1460 174° South 168 193 2,700 -214 Level FlightAware
Fri 08:32:32 PM -33.8170 151.1530 174° South 137 158 2,500 176 Descending FlightAware
Fri 08:32:36 PM -33.8196 151.1540 174° South 153 176 2,800 -720 Climbing Aus
Fri 08:32:57 PM -33.8330 151.1590 163° South 133 153 2,200 -1,176 Descending FlightAware
Fri 08:33:27 PM -33.8510 151.1640 167° South 133 153 1,800 -800 Descending FlightAware
Fri 08:33:57 PM -33.8710 151.1680 171° South 130 150 1,400 -764 Descending FlightAware
Fri 08:34:22 PM -33.8850 151.1710 170° South 133 153 1,100 -750 Descending FlightAware
Fri 08:34:37 PM -33.8940 151.1740 165° South 121 139 900 -600 Descending FlightAware
Fri 08:35:12 PM -33.9140 151.1790 168° South 120 138 600 -636 Descending FlightAware
Fri 08:35:43 PM -33.9330 151.1840 168° South 132 152 200 -182 Descending FlightAware
Fri 08:35:45 PM -33.9353 151.1844 168° South 130 150 500 9,000 Climbing Aus
Fri 08:36:13 PM -33.9500 151.1880 169° South 103 119 -1,071 Descending FlightAware
Fri 08:36:28 PM -33.9570 151.1900 167° South 86 99  Level FlightAware

Login

Don't have an account? Register now (free) for customized features, flight alerts, and more!